Anderson, IN (46011)

9:09 PM EDT on August 31, 2015 (GMT -0400)
Steve-n-Kims | | Change Station
CLOSE
Current Station
Personal Weather Station
Location: Anderson, IN
Elevation: 810 ft
Nearby Weather Stations

Elev 810 ft 40.12 °N, 85.67 °W | Updated 1 second ago

Partly Cloudy
Partly Cloudy
78.8 °F
Feels Like 81 °F
N
0.5
Wind Variable Wind from SE
Gusts 1.6 mph

Today
High -- | Low -- °F
--% Chance of Precip.
Yesterday
High -- | Low -- °F
Precip. -- in
7:09 AM 8:16 PM
Waning Gibbous, 92% visible
Pressure 30.05 in
Visibility 10.0 miles
Clouds Scattered Clouds 4700 ft
Scattered Clouds 6500 ft
Mostly Cloudy 9000 ft
Heat Index 81 °F
Dew Point 69 °F
Humidity 72%
Rainfall 0.00 in
Snow Depth Not available.
UV 0 out of 12
Pollen 10.80 out of 12
Air Quality Not available.
Flu Activity Not available.
METAR KMIE 010053Z 08005KT 10SM SCT047 SCT065 BKN090 23/18 A3008 RMK AO2 SLP176 T02330183
Pressure 30.05 in
Visibility 10.0 miles
Clouds Scattered Clouds 4700 ft
Scattered Clouds 6500 ft
Mostly Cloudy 9000 ft
Heat Index 81 °F
Dew Point 69 °F
Humidity 72%
Rainfall 0.00 in
Snow Depth Not available.
UV 0 out of 12
Pollen 10.80 out of 12
Air Quality Not available.
Flu Activity Not available.
METAR KMIE 010053Z 08005KT 10SM SCT047 SCT065 BKN090 23/18 A3008 RMK AO2 SLP176 T02330183

10-Day Weather Forecast

×

Almanac

Astronomy

Aug. 31, 2015 Rise Set
Actual Time
Civil Twilight
Nautical Twilight
Astronomical Twilight
Moon
Length of Visible Light
Length of Day
Tomorrow will be .
, % of the Moon is Illuminated

Today's Extremes

State Highs State Lows

Community

WunderPhotos

Upload Photos

1,851,413 photos uploaded!

WunderBlogs® & News

Nearby

Air Quality

  Air Quality AQ Index Pollutant
Not available.

Snow Depth

Station Depth Elevation

Earthquake Activity

City Distance Mag. Time & Date
Minimum magnitude displayed is 2.5.

Coastal Water Temperatures

Place Temperature

Stations

Nearby Weather Stations

Station Location Temp. Windchill Dew Point Humidity Wind Precip. Elev Updated Type